Time;durP1;ratioP1;P1;durP2;ratioP2;P2;SDS_P1;SDS_P2;PMS_P1;PMS_P2;Temp;Humidity;BMP_temperature;BMP_pressure;BME280_temperature;BME280_humidity;BME280_pressure;Samples;Min_cycle;Max_cycle;Signal;HPM_P1;HPM_P2
2023/03/26 00:01:32;;;;;;;47.50;6.40;;;;;;;6.20;100.00;100716.09;5052170;28;20377;-84
2023/03/26 00:03:58;;;;;;;49.83;7.70;;;;;;;6.12;100.00;100719.63;5052448;28;20021;-84
2023/03/26 00:06:29;;;;;;;38.67;6.40;;;;;;;6.12;100.00;100725.66;5051694;28;20082;-84
2023/03/26 00:08:56;;;;;;;45.85;6.60;;;;;;;6.00;100.00;100710.22;5052363;28;20044;-84
2023/03/26 00:15:55;;;;;;;33.97;6.90;;;;;;;6.02;100.00;100731.78;5045194;28;20048;-85
2023/03/26 00:18:50;;;;;;;45.13;6.72;;;;;;;5.98;100.00;100724.88;5044137;28;20045;-84
2023/03/26 00:24:38;;;;;;;50.15;6.07;;;;;;;5.77;100.00;100694.81;5052240;28;20116;-85
2023/03/26 00:27:04;;;;;;;34.15;5.53;;;;;;;5.87;100.00;100706.81;5051835;28;20032;-84
2023/03/26 00:29:38;;;;;;;48.03;6.68;;;;;;;5.57;100.00;100663.88;5052019;28;20024;-85
2023/03/26 00:32:35;;;;;;;38.78;6.53;;;;;;;5.40;100.00;100646.75;5051907;28;20407;-84
2023/03/26 00:35:02;;;;;;;44.50;6.20;;;;;;;5.58;100.00;100683.69;5032854;28;20037;-84
2023/03/26 00:37:50;;;;;;;47.15;6.55;;;;;;;5.73;100.00;100704.31;5051893;28;20044;-85
2023/03/26 00:40:18;;;;;;;38.13;5.88;;;;;;;5.31;100.00;100639.03;5055009;28;20075;-84
2023/03/26 00:43:08;;;;;;;51.50;7.00;;;;;;;5.43;100.00;100660.50;5055972;28;20021;-84
2023/03/26 00:45:42;;;;;;;49.38;5.85;;;;;;;5.60;100.00;100689.72;5020258;28;20037;-84
2023/03/26 00:48:08;;;;;;;62.45;7.60;;;;;;;5.52;100.00;100676.81;5055201;28;20403;-84
2023/03/26 00:53:59;;;;;;;53.75;6.55;;;;;;;5.39;100.00;100638.97;4983625;28;20061;-84
2023/03/26 00:56:55;;;;;;;45.28;6.30;;;;;;;5.76;100.00;100693.94;4994324;28;20067;-84
2023/03/26 00:59:47;;;;;;;54.40;7.25;;;;;;;5.49;100.00;100637.19;4994573;28;20182;-84
2023/03/26 01:06:34;;;;;;;42.45;6.13;;;;;;;5.67;100.00;100681.06;5032501;28;20106;-84
2023/03/26 01:09:18;;;;;;;30.33;5.35;;;;;;;5.57;100.00;100659.56;5038314;28;20044;-84
2023/03/26 01:11:44;;;;;;;42.75;5.78;;;;;;;5.54;100.00;100656.16;5055298;28;20115;-84
2023/03/26 01:14:36;;;;;;;38.35;6.28;;;;;;;5.52;100.00;100657.88;5055637;28;20075;-84
2023/03/26 01:17:06;;;;;;;46.65;5.95;;;;;;;5.45;100.00;100649.28;5051553;28;20075;-84
2023/03/26 01:20:12;;;;;;;41.42;6.55;;;;;;;5.46;100.00;100655.31;5055635;28;20124;-85
2023/03/26 01:22:41;;;;;;;39.40;5.53;;;;;;;5.42;100.00;100651.03;5054519;28;20040;-85
2023/03/26 01:25:08;;;;;;;44.95;6.47;;;;;;;5.36;100.00;100637.28;5055493;28;20056;-84
2023/03/26 01:27:47;;;;;;;39.15;5.55;;;;;;;5.38;100.00;100632.09;5055142;28;20025;-84
2023/03/26 01:30:16;;;;;;;47.17;6.43;;;;;;;5.34;100.00;100628.69;5054668;28;20040;-84
2023/03/26 01:32:57;;;;;;;43.35;5.78;;;;;;;5.25;100.00;100620.97;5054968;28;20021;-84
2023/03/26 01:35:31;;;;;;;40.30;5.53;;;;;;;5.28;100.00;100623.53;5055407;28;20086;-84
2023/03/26 01:38:21;;;;;;;39.72;6.07;;;;;;;5.24;100.00;100621.84;5054266;28;20440;-84
2023/03/26 01:41:09;;;;;;;35.88;5.68;;;;;;;5.22;100.00;100613.22;5054646;28;20029;-84
2023/03/26 01:43:52;;;;;;;40.63;6.07;;;;;;;5.22;100.00;100617.53;5053688;28;20507;-84
2023/03/26 01:46:21;;;;;;;41.28;5.38;;;;;;;5.15;100.00;100611.53;5054855;28;20033;-84
2023/03/26 01:48:47;;;;;;;44.47;6.60;;;;;;;5.16;100.00;100608.94;5054793;28;20028;-84
2023/03/26 01:51:26;;;;;;;38.33;5.80;;;;;;;5.16;100.00;100613.25;5053783;28;20017;-84
2023/03/26 01:53:53;;;;;;;36.90;5.38;;;;;;;5.11;100.00;100605.53;5054751;28;20402;-84
2023/03/26 01:56:18;;;;;;;53.03;5.75;;;;;;;5.13;100.00;100613.25;5054814;28;20017;-84
2023/03/26 01:59:02;;;;;;;38.22;5.05;;;;;;;5.14;100.00;100604.66;5053743;28;20033;-85
2023/03/26 02:01:56;;;;;;;38.92;6.47;;;;;;;5.13;100.00;100597.75;5054580;28;20036;-85
2023/03/26 02:04:40;;;;;;;34.10;5.47;;;;;;;5.14;100.00;100591.75;5040975;28;20034;-84
2023/03/26 02:07:13;;;;;;;38.95;5.70;;;;;;;5.13;100.00;100585.72;5040926;28;20408;-84
2023/03/26 02:09:46;;;;;;;50.57;6.17;;;;;;;5.15;100.00;100585.69;5054675;28;20048;-84
2023/03/26 02:12:14;;;;;;;47.50;5.18;;;;;;;5.22;100.00;100579.63;5053621;28;20037;-84
2023/03/26 02:14:41;;;;;;;40.60;5.68;;;;;;;5.23;100.00;100575.31;5054359;28;20075;-83
2023/03/26 02:17:08;;;;;;;39.13;6.72;;;;;;;5.23;100.00;100567.56;5054708;28;20025;-84
2023/03/26 02:19:34;;;;;;;37.17;5.50;;;;;;;5.22;100.00;100561.53;5053072;28;20427;-84
2023/03/26 02:22:00;;;;;;;34.30;4.88;;;;;;;5.23;100.00;100559.81;5054210;28;20024;-84
2023/03/26 02:24:26;;;;;;;38.08;5.68;;;;;;;5.19;100.00;100555.53;5054176;28;20346;-84
2023/03/26 02:26:51;;;;;;;47.28;5.70;;;;;;;5.25;100.00;100560.66;5053115;28;20032;-84
2023/03/26 02:29:19;;;;;;;37.42;5.25;;;;;;;5.29;100.00;100557.19;5054416;28;20487;-83
2023/03/26 02:31:47;;;;;;;40.45;5.85;;;;;;;5.29;100.00;100555.44;5053501;28;20529;-84
2023/03/26 02:34:12;;;;;;;36.20;5.32;;;;;;;5.33;100.00;100564.94;5053316;28;20025;-84
2023/03/26 02:36:41;;;;;;;40.90;5.18;;;;;;;5.35;100.00;100551.97;5053560;28;20025;-84
2023/03/26 02:39:10;;;;;;;34.65;4.78;;;;;;;5.35;100.00;100546.81;5053017;28;20357;-85
2023/03/26 02:41:37;;;;;;;33.97;4.97;;;;;;;5.34;100.00;100545.94;5053834;28;20040;-84
2023/03/26 02:44:04;;;;;;;44.00;5.35;;;;;;;5.39;100.00;100536.44;5053672;28;20025;-84
2023/03/26 02:46:31;;;;;;;29.10;4.95;;;;;;;5.46;100.00;100541.56;5053123;28;20049;-84
2023/03/26 02:48:56;;;;;;;38.40;5.72;;;;;;;5.47;100.00;100540.69;5053748;28;20025;-83
2023/03/26 02:51:21;;;;;;;25.10;4.88;;;;;;;5.47;100.00;100532.94;5053639;28;20017;-84
2023/03/26 02:53:47;;;;;;;34.50;5.50;;;;;;;5.44;100.00;100515.72;5053099;28;20056;-84
2023/03/26 02:56:12;;;;;;;32.35;5.25;;;;;;;5.47;100.00;100525.19;5053755;28;20461;-84
2023/03/26 02:58:37;;;;;;;43.75;6.60;;;;;;;5.39;100.00;100507.13;5053437;28;20025;-84
2023/03/26 03:01:04;;;;;;;41.90;5.57;;;;;;;5.47;100.00;100520.88;5052233;28;20017;-84
2023/03/26 03:03:31;;;;;;;40.50;6.15;;;;;;;5.44;100.00;100504.53;5053335;28;20032;-84
2023/03/26 03:05:57;;;;;;;45.40;6.10;;;;;;;5.48;100.00;100511.38;5053133;28;20017;-84
2023/03/26 03:08:25;;;;;;;34.50;6.15;;;;;;;5.48;100.00;100495.88;5052534;28;20364;-84
2023/03/26 03:11:08;;;;;;;46.25;5.78;;;;;;;5.49;100.00;100497.56;5052911;28;20029;-84
2023/03/26 03:13:33;;;;;;;37.20;6.00;;;;;;;5.48;100.00;100481.22;5053184;28;20033;-84
2023/03/26 03:15:58;;;;;;;36.80;5.45;;;;;;;5.50;100.00;100482.06;5052299;28;20104;-84
2023/03/26 03:18:23;;;;;;;44.80;5.93;;;;;;;5.56;100.00;100486.34;5053333;28;20427;-84
2023/03/26 03:20:49;;;;;;;36.53;5.45;;;;;;;5.52;100.00;100475.13;5053128;28;20504;-84
2023/03/26 03:23:15;;;;;;;39.15;6.38;;;;;;;5.60;100.00;100482.84;5052138;28;20052;-84
2023/03/26 03:25:40;;;;;;;40.10;6.10;;;;;;;5.62;100.00;100465.56;5053033;28;20075;-84
2023/03/26 03:28:06;;;;;;;36.17;5.32;;;;;;;5.62;100.00;100468.16;5053329;28;20074;-85
2023/03/26 03:30:32;;;;;;;38.60;5.93;;;;;;;5.66;100.00;100462.09;5052058;28;20472;-84
2023/03/26 03:32:58;;;;;;;41.47;5.40;;;;;;;5.67;100.00;100466.41;5052569;28;20021;-85
2023/03/26 03:35:26;;;;;;;30.88;5.63;;;;;;;5.70;100.00;100462.94;5052297;28;20017;-84
2023/03/26 03:37:51;;;;;;;34.35;5.25;;;;;;;5.72;100.00;100458.56;5052946;28;20032;-84
2023/03/26 03:40:18;;;;;;;28.92;5.20;;;;;;;5.74;100.00;100457.69;5053047;28;20483;-84
2023/03/26 03:42:43;;;;;;;29.77;5.38;;;;;;;5.72;100.00;100454.28;5051803;28;20065;-85
2023/03/26 03:45:09;;;;;;;44.17;5.43;;;;;;;5.78;100.00;100454.19;5052676;28;20045;-85
2023/03/26 03:47:35;;;;;;;33.33;5.50;;;;;;;5.81;100.00;100461.09;5052489;28;20065;-85
2023/03/26 03:50:00;;;;;;;34.17;5.63;;;;;;;5.76;100.00;100435.28;5051751;28;20155;-85
2023/03/26 03:52:26;;;;;;;26.38;4.72;;;;;;;5.85;100.00;100448.13;5052937;28;20143;-85
2023/03/26 03:54:52;;;;;;;31.77;5.85;;;;;;;5.84;100.00;100436.03;5052863;28;20369;-86
2023/03/26 03:57:18;;;;;;;26.63;4.55;;;;;;;5.90;100.00;100445.47;5051793;28;20017;-85
2023/03/26 03:59:43;;;;;;;23.00;4.18;;;;;;;5.92;100.00;100435.97;5052541;28;20464;-85
2023/03/26 04:02:10;;;;;;;29.30;4.47;;;;;;;5.93;100.00;100435.13;5052355;28;20021;-85
2023/03/26 04:04:36;;;;;;;22.92;4.75;;;;;;;5.94;100.00;100426.47;5051849;28;20075;-85
2023/03/26 04:07:02;;;;;;;21.55;4.35;;;;;;;5.96;100.00;100431.66;5052602;28;20052;-85
2023/03/26 04:09:28;;;;;;;33.03;5.00;;;;;;;5.96;100.00;100418.72;5363324;22;20045;-84
2023/03/26 04:11:54;;;;;;;24.90;4.70;;;;;;;5.97;100.00;100415.25;5051874;28;20029;-84
2023/03/26 04:14:19;;;;;;;28.10;4.68;;;;;;;5.92;100.00;100399.75;5053327;28;20465;-84
2023/03/26 04:16:47;;;;;;;25.27;4.57;;;;;;;5.95;100.00;100401.47;5064857;28;20056;-85
2023/03/26 04:19:13;;;;;;;33.25;4.40;;;;;;;5.84;100.00;100381.72;5051862;28;20025;-84
2023/03/26 04:21:41;;;;;;;30.15;5.07;;;;;;;5.95;100.00;100383.34;5057570;28;20025;-85
2023/03/26 04:24:07;;;;;;;28.23;4.28;;;;;;;5.93;100.00;100385.97;5060497;28;20041;-84
2023/03/26 04:26:34;;;;;;;29.83;5.13;;;;;;;5.92;100.00;100378.16;5051271;28;20028;-85
2023/03/26 04:29:03;;;;;;;23.85;4.15;;;;;;;5.88;100.00;100374.75;5052269;28;20527;-84
2023/03/26 04:31:29;;;;;;;25.75;3.85;;;;;;;5.93;100.00;100375.63;5066533;28;20481;-84
2023/03/26 04:34:19;;;;;;;31.00;4.07;;;;;;;5.90;100.00;100359.25;5071650;28;20029;-85
2023/03/26 04:36:45;;;;;;;23.33;3.97;;;;;;;5.82;100.00;100346.38;5057938;28;20020;-84
2023/03/26 04:39:11;;;;;;;29.02;4.05;;;;;;;5.91;100.00;100364.38;5061557;28;20017;-84
2023/03/26 04:41:37;;;;;;;28.50;4.68;;;;;;;5.89;100.00;100362.72;5065834;28;20033;-85
2023/03/26 04:44:03;;;;;;;30.20;4.22;;;;;;;5.84;100.00;100345.50;5051934;28;20048;-84
2023/03/26 04:46:32;;;;;;;19.25;3.92;;;;;;;5.84;100.00;100340.31;5065485;28;20029;-84
2023/03/26 04:48:58;;;;;;;23.33;4.20;;;;;;;5.84;100.00;100344.63;5066060;28;20389;-84
2023/03/26 04:51:25;;;;;;;18.10;3.63;;;;;;;5.73;100.00;100321.50;5052323;28;20082;-84
2023/03/26 04:53:59;;;;;;;25.23;4.13;;;;;;;5.76;100.00;100336.97;5051271;28;20036;-85
2023/03/26 04:56:30;;;;;;;;;;;;;;;5.74;100.00;100327.53;5052447;28;20025;-84
2023/03/26 05:01:44;;;;;;;18.27;3.15;;;;;;;5.53;100.00;100303.63;5154644;22;20499;-85
2023/03/26 05:04:49;;;;;;;26.00;4.07;;;;;;;5.66;100.00;100322.44;5092091;28;20020;-84
2023/03/26 05:07:35;;;;;;;19.90;3.65;;;;;;;5.27;100.00;100249.63;5077049;28;20027;-84
2023/03/26 05:13:11;;;;;;;18.38;3.33;;;;;;;5.29;100.00;100237.53;5088454;28;20052;-84
2023/03/26 05:15:36;;;;;;;23.55;4.53;;;;;;;5.77;100.00;100309.38;5082982;28;20029;-83
2023/03/26 05:18:02;;;;;;;20.55;4.40;;;;;;;5.80;100.00;100305.03;5092237;28;20034;-84
2023/03/26 05:20:29;;;;;;;28.88;5.20;;;;;;;5.77;100.00;100294.72;5091806;28;20020;-84
2023/03/26 05:22:55;;;;;;;23.00;4.75;;;;;;;5.86;100.00;100299.78;5091251;28;20028;-83
2023/03/26 05:25:20;;;;;;;23.90;4.82;;;;;;;5.83;100.00;100292.06;5093805;28;20023;-84
2023/03/26 05:27:46;;;;;;;27.48;4.57;;;;;;;5.92;100.00;100295.38;5095455;28;20016;-83
2023/03/26 05:30:15;;;;;;;20.63;3.78;;;;;;;5.94;100.00;100285.91;5089150;28;20021;-84
2023/03/26 05:32:40;;;;;;;22.05;4.22;;;;;;;5.89;100.00;100282.50;5088483;28;20020;-84
2023/03/26 05:35:06;;;;;;;21.77;4.38;;;;;;;5.93;100.00;100266.94;5094940;28;20020;-84
2023/03/26 05:37:32;;;;;;;26.10;4.68;;;;;;;5.96;100.00;100266.91;5095074;28;20365;-84
2023/03/26 05:39:58;;;;;;;21.63;4.60;;;;;;;6.01;100.00;100266.84;5093105;28;20027;-83
2023/03/26 05:42:23;;;;;;;29.95;5.90;;;;;;;6.04;100.00;100265.06;5083001;28;20020;-84
2023/03/26 05:44:49;;;;;;;22.65;5.13;;;;;;;5.99;100.00;100256.53;5095135;28;20020;-84
2023/03/26 05:47:14;;;;;;;27.67;5.90;;;;;;;6.06;100.00;100258.13;5095087;28;20078;-84
2023/03/26 05:49:39;;;;;;;24.98;4.68;;;;;;;6.09;100.00;100255.50;5094286;28;20028;-83
2023/03/26 05:52:05;;;;;;;24.90;4.57;;;;;;;6.12;100.00;100256.34;5095203;28;20096;-83
2023/03/26 05:54:30;;;;;;;28.73;4.72;;;;;;;6.08;100.00;100245.16;5094587;28;20046;-82
2023/03/26 05:56:56;;;;;;;28.20;4.60;;;;;;;6.09;100.00;100227.03;5093815;28;20024;-82
2023/03/26 05:59:22;;;;;;;27.33;5.70;;;;;;;6.12;100.00;100231.31;5095076;28;20024;-83
2023/03/26 06:01:49;;;;;;;39.97;5.22;;;;;;;6.05;100.00;100224.53;5094945;28;20028;-84
2023/03/26 06:04:16;;;;;;;21.35;5.18;;;;;;;6.01;100.00;100208.16;5093971;28;20491;-83
2023/03/26 06:10:03;;;;;;;29.85;6.20;;;;;;;5.76;100.00;100171.44;5087174;28;20510;-84
2023/03/26 06:12:35;;;;;;;29.17;6.47;;;;;;;5.77;100.00;100156.78;5093871;28;20025;-84
2023/03/26 06:19:07;;;;;;;23.13;4.95;;;;;;;6.15;100.00;100215.75;5038663;28;20055;-84
2023/03/26 06:25:33;;;;;;;30.40;5.43;;;;;;;6.19;100.00;100211.38;5051474;28;20040;-84
2023/03/26 06:27:59;;;;;;;34.63;6.15;;;;;;;5.86;100.00;100157.50;5010592;28;20018;-84
2023/03/26 06:30:57;;;;;;;26.33;4.85;;;;;;;6.19;100.00;100204.47;5012188;28;20397;-84
2023/03/26 06:33:35;;;;;;;26.50;4.80;;;;;;;6.05;100.00;100183.13;5063495;28;20033;-84
2023/03/26 06:36:00;;;;;;;34.13;5.55;;;;;;;6.20;100.00;100211.34;5085428;28;20052;-84
2023/03/26 06:45:32;;;;;;;25.25;5.63;;;;;;;5.79;100.00;100135.19;5094101;28;20050;-83
2023/03/26 06:48:04;;;;;;;21.55;5.13;;;;;;;6.10;100.00;100189.91;5094118;28;20506;-84
2023/03/26 06:50:35;;;;;;;33.25;5.47;;;;;;;5.92;100.00;100161.72;5093825;28;20020;-84
2023/03/26 06:53:44;;;;;;;25.27;5.35;;;;;;;6.26;100.00;100210.41;5093235;28;20052;-84
2023/03/26 06:56:34;;;;;;;21.75;6.00;;;;;;;6.25;100.00;100216.47;5093697;28;20460;-82
2023/03/26 06:59:05;;;;;;;26.45;6.15;;;;;;;5.89;100.00;100146.25;5093818;28;20020;-82
2023/03/26 07:01:48;;;;;;;31.05;6.32;;;;;;;6.00;100.00;100174.56;5093040;28;20371;-82
2023/03/26 07:07:44;;;;;;;27.08;6.68;;;;;;;6.18;100.00;100196.69;5091594;28;20059;-80
2023/03/26 07:10:30;;;;;;;28.80;7.20;;;;;;;5.98;100.00;100163.38;5093838;28;20043;-81
2023/03/26 07:15:34;;;;;;;21.23;6.15;;;;;;;6.21;100.00;100187.19;5566091;22;20055;-80
2023/03/26 07:17:59;;;;;;;32.00;6.45;;;;;;;6.20;100.00;100187.19;5093487;28;20020;-80
2023/03/26 07:20:25;;;;;;;28.77;6.57;;;;;;;6.25;100.00;100191.44;5083416;28;20048;-80
2023/03/26 07:22:51;;;;;;;22.80;6.07;;;;;;;6.30;100.00;100199.09;5072681;28;20051;-80
2023/03/26 07:25:17;;;;;;;26.92;6.47;;;;;;;6.32;100.00;100200.81;5073218;28;20031;-81
2023/03/26 07:27:55;;;;;;;25.27;6.40;;;;;;;6.29;100.00;100187.06;5072404;28;20021;-80
2023/03/26 07:30:27;;;;;;;27.88;7.05;;;;;;;6.25;100.00;100178.47;5067258;28;20494;-80
2023/03/26 07:33:04;;;;;;;20.77;6.53;;;;;;;6.34;100.00;100187.81;5079038;28;20029;-80
2023/03/26 07:35:42;;;;;;;28.67;7.50;;;;;;;6.28;100.00;100175.84;5084808;28;20016;-81
2023/03/26 07:38:41;;;;;;;24.75;6.72;;;;;;;6.34;100.00;100169.69;5073138;28;20037;-80
2023/03/26 07:41:38;;;;;;;33.15;6.53;;;;;;;6.42;100.00;100177.34;5084972;28;20410;-80
2023/03/26 07:44:10;;;;;;;32.25;6.97;;;;;;;6.44;100.00;100171.28;5066612;28;20044;-81
2023/03/26 07:46:36;;;;;;;33.92;6.93;;;;;;;6.37;100.00;100163.63;5078095;28;20479;-80
2023/03/26 07:49:03;;;;;;;31.42;7.40;;;;;;;6.42;100.00;100161.81;5084768;28;20017;-81
2023/03/26 07:51:29;;;;;;;31.17;7.07;;;;;;;6.47;100.00;100165.16;5072669;28;20024;-80
2023/03/26 07:53:55;;;;;;;24.20;6.95;;;;;;;6.38;100.00;100145.47;5087003;28;20017;-81
2023/03/26 07:56:45;;;;;;;22.33;6.63;;;;;;;6.53;100.00;100175.41;5072140;28;20020;-81
2023/03/26 07:59:30;;;;;;;27.25;6.88;;;;;;;6.55;100.00;100171.06;5059541;28;20028;-81
2023/03/26 08:02:17;;;;;;;20.13;6.35;;;;;;;6.56;100.00;100165.00;5072486;28;20077;-81
2023/03/26 08:05:01;;;;;;;29.35;7.07;;;;;;;6.60;100.00;100165.81;5082090;28;20063;-80
2023/03/26 08:07:36;;;;;;;36.15;7.40;;;;;;;6.57;100.00;100167.59;5088043;28;20071;-81
2023/03/26 08:10:27;;;;;;;27.25;7.22;;;;;;;6.63;100.00;100152.78;5083564;28;20111;-81
2023/03/26 08:13:12;;;;;;;31.50;7.88;;;;;;;6.72;100.00;100165.59;5049845;28;20033;-81
2023/03/26 08:15:48;;;;;;;19.98;6.85;;;;;;;6.70;100.00;100147.50;5072149;28;20045;-80
2023/03/26 08:18:30;;;;;;;31.33;7.15;;;;;;;6.78;100.00;100155.97;5091234;28;20089;-81
2023/03/26 08:21:21;;;;;;;23.58;6.95;;;;;;;6.84;100.00;100159.34;5079274;28;20043;-81
2023/03/26 08:24:31;;;;;;;28.50;6.90;;;;;;;6.83;100.00;100142.91;5062427;28;20043;-81
2023/03/26 08:27:18;;;;;;;32.78;6.57;;;;;;;6.90;100.00;100159.19;5010523;28;20026;-82
2023/03/26 08:32:27;;;;;;;26.42;7.22;;;;;;;6.95;100.00;100152.19;5180875;22;20389;-82
2023/03/26 08:35:14;;;;;;;36.63;8.63;;;;;;;6.39;100.00;100055.72;5092309;28;20028;-81
2023/03/26 08:37:48;;;;;;;22.17;7.70;;;;;;;6.86;100.00;100129.03;5092449;28;20023;-81
2023/03/26 08:40:42;;;;;;;25.77;8.10;;;;;;;6.67;100.00;100093.16;5092128;28;20490;-80
2023/03/26 08:47:07;;;;;;;28.08;7.95;;;;;;;6.71;100.00;100073.22;5091535;28;20039;-81
2023/03/26 08:50:10;;;;;;;22.70;7.82;;;;;;;7.20;100.00;100155.16;5083083;28;20120;-81
2023/03/26 08:53:17;;;;;;;23.98;9.05;;;;;;;7.23;100.00;100142.97;5091436;28;20040;-81
2023/03/26 08:55:50;;;;;;;26.27;8.43;;;;;;;7.25;100.00;100148.97;5223026;22;20368;-80
2023/03/26 08:58:33;;;;;;;25.67;7.60;;;;;;;7.26;100.00;100148.09;5092535;28;20024;-80
2023/03/26 09:01:41;;;;;;;22.90;7.35;;;;;;;7.22;100.00;100130.88;5081856;28;20035;-81
2023/03/26 09:04:27;;;;;;;23.38;6.32;;;;;;;7.22;100.00;100128.28;5096004;28;20535;-81
2023/03/26 09:07:34;;;;;;;21.45;6.43;;;;;;;7.24;100.00;100142.09;5095660;28;20066;-80
2023/03/26 09:10:24;;;;;;;28.75;7.10;;;;;;;7.23;100.00;100142.97;5084740;28;20028;-81
2023/03/26 09:12:55;;;;;;;24.80;6.65;;;;;;;7.27;100.00;100144.63;5092817;28;20482;-81
2023/03/26 09:15:39;;;;;;;25.52;7.10;;;;;;;7.33;100.00;100142.78;5095397;28;20156;-80
2023/03/26 09:18:29;;;;;;;29.33;10.55;;;;;;;7.33;100.00;100147.97;5096004;28;20024;-81
2023/03/26 09:21:09;;;;;;;30.55;12.10;;;;;;;7.37;100.00;100140.09;5095434;28;20031;-81
2023/03/26 09:24:07;;;;;;;32.10;11.15;;;;;;;7.42;100.00;100140.88;5095748;28;20501;-80
2023/03/26 09:26:49;;;;;;;28.33;11.32;;;;;;;7.46;100.00;100142.50;5095507;28;20028;-81
2023/03/26 09:29:40;;;;;;;25.67;10.45;;;;;;;7.31;100.00;100096.13;5094794;28;20028;-80
2023/03/26 09:32:39;;;;;;;23.13;9.65;;;;;;;7.49;100.00;100139.00;5095730;28;20085;-79
2023/03/26 09:35:07;;;;;;;25.95;8.30;;;;;;;7.42;100.00;100142.56;5080400;28;20054;-80
2023/03/26 09:37:39;;;;;;;26.40;7.70;;;;;;;7.25;100.00;100127.38;5095372;28;20024;-80
2023/03/26 09:40:21;;;;;;;19.95;5.75;;;;;;;7.18;100.00;100150.00;5081523;28;20020;-80
2023/03/26 09:43:24;;;;;;;19.67;4.72;;;;;;;7.14;100.00;100143.16;5094625;28;20031;-81
2023/03/26 09:46:14;;;;;;;18.02;5.75;;;;;;;7.24;100.00;100142.09;5259772;22;20051;-80
2023/03/26 09:55:43;;;;;;;14.13;6.35;;;;;;;7.68;100.00;100129.91;4993204;28;20531;-81
2023/03/26 09:58:48;;;;;;;18.00;6.38;;;;;;;7.72;100.00;100135.88;4993454;28;20117;-81
2023/03/26 10:05:14;;;;;;;11.50;4.50;;;;;;;7.39;100.00;100064.84;5063258;28;20063;-80
2023/03/26 10:08:19;;;;;;;14.82;4.57;;;;;;;7.84;100.00;100143.34;5074998;28;20055;-80
2023/03/26 10:14:45;;;;;;;12.60;3.05;;;;;;;7.60;100.00;100159.50;5054581;28;20067;-81
2023/03/26 10:17:41;;;;;;;10.07;3.22;;;;;;;7.62;100.00;100150.78;5064802;28;20029;-81
2023/03/26 10:20:44;;;;;;;13.30;3.17;;;;;;;7.60;100.00;100147.38;5067738;28;20106;-80
2023/03/26 10:23:52;;;;;;;9.15;2.75;;;;;;;7.61;100.00;100149.06;5072052;28;20036;-80
2023/03/26 10:26:55;;;;;;;10.23;2.60;;;;;;;7.67;100.00;100150.69;5038454;28;20036;-80
2023/03/26 10:30:02;;;;;;;9.68;2.55;;;;;;;7.71;100.00;100147.13;5074265;28;20112;-80
2023/03/26 10:33:21;;;;;;;8.02;2.47;;;;;;;7.52;100.00;100094.81;5073431;28;20040;-80
2023/03/26 10:39:28;;;;;;;6.57;2.50;;;;;;;8.07;100.00;100157.53;5062508;28;20035;-80
2023/03/26 10:42:46;;;;;;;6.18;2.42;;;;;;;8.13;100.00;100158.22;5073817;28;20025;-80
2023/03/26 10:49:25;;;;;;;9.27;2.53;;;;;;;8.15;100.00;100156.47;4978576;28;20049;-81
2023/03/26 10:52:46;;;;;;;4.10;1.88;;;;;;;7.94;100.00;100159.56;4991231;28;20053;-80
2023/03/26 11:13:43;;;;;;;4.63;1.17;;;;;;;7.67;100.00;100179.22;5049468;28;20118;-81
2023/03/26 11:22:57;;;;;;;5.40;1.60;;;;;;;7.85;100.00;100183.16;5099212;22;20052;-81
2023/03/26 11:25:50;;;;;;;5.45;3.13;;;;;;;7.88;100.00;100173.56;5093492;28;20111;-81
2023/03/26 11:28:37;;;;;;;3.20;1.40;;;;;;;7.88;100.00;100157.97;5092962;28;20024;-81
2023/03/26 11:31:47;;;;;;;42.85;29.70;;;;;;;8.02;100.00;100186.22;5093688;28;20031;-81
2023/03/26 11:42:06;;;;;;;2.03;1.25;;;;;;;7.84;100.00;100169.31;6126380;22;20004;-82
2023/03/26 11:44:38;;;;;;;3.40;1.30;;;;;;;7.90;100.00;100176.94;5092889;28;20039;-82
2023/03/26 11:47:09;;;;;;;3.55;1.20;;;;;;;7.98;100.00;100189.78;5092292;28;20047;-81
2023/03/26 11:53:19;;;;;;;6.13;1.58;;;;;;;7.97;100.00;100193.22;5096682;22;20054;-82
2023/03/26 11:56:34;;;;;;;2.10;1.58;;;;;;;7.99;100.00;100199.25;5091177;22;20052;-81
2023/03/26 11:59:31;;;;;;;4.20;2.00;;;;;;;7.98;100.00;100195.81;5038431;28;20045;-81
2023/03/26 12:05:50;;;;;;;4.18;1.88;;;;;;;7.30;100.00;100109.16;5052681;28;20140;-81
2023/03/26 12:12:02;;;;;;;6.35;1.80;;;;;;;7.63;100.00;100178.44;4956656;28;20042;-81
2023/03/26 12:14:32;;;;;;;3.00;1.83;;;;;;;7.85;100.00;100201.31;5051900;28;20078;-81
2023/03/26 12:17:07;;;;;;;5.60;2.70;;;;;;;7.72;100.00;100196.41;5051542;28;20033;-81
2023/03/26 12:19:39;;;;;;;5.72;2.70;;;;;;;7.71;100.00;100212.84;5052140;28;20100;-81
2023/03/26 12:22:05;;;;;;;4.38;2.53;;;;;;;7.65;100.00;100201.72;5052197;28;20103;-81
2023/03/26 12:25:25;;;;;;;;;;;;;;;;;;;;;
2023/03/26 12:28:31;;;;;;;6.18;3.25;;;;;;;7.82;100.00;100215.22;5056205;28;20454;-81
2023/03/26 12:31:56;;;;;;;8.00;3.40;;;;;;;8.07;100.00;100214.66;5071860;28;20031;-81
2023/03/26 12:34:38;;;;;;;8.82;4.10;;;;;;;8.12;100.00;100187.69;5012424;28;20060;-81
2023/03/26 12:37:43;;;;;;;6.30;3.40;;;;;;;8.40;100.00;100218.22;5052318;22;20052;-81
2023/03/26 12:40:35;;;;;;;7.47;4.07;;;;;;;8.58;100.00;100224.72;5056062;28;20110;-81
2023/03/26 12:43:45;;;;;;;7.00;4.32;;;;;;;8.19;100.00;100146.84;5056336;28;20021;-82
2023/03/26 12:46:34;;;;;;;8.20;4.80;;;;;;;8.73;100.00;100224.34;5029596;28;20409;-82
2023/03/26 12:49:05;;;;;;;7.28;4.53;;;;;;;8.71;100.00;100235.66;5056152;28;20036;-82
2023/03/26 12:51:35;;;;;;;7.15;4.45;;;;;;;8.78;100.00;100224.19;5055252;28;20029;-81
2023/03/26 12:54:22;;;;;;;10.55;5.05;;;;;;;8.83;100.00;100228.41;5042506;28;20083;-82
2023/03/26 12:57:04;;;;;;;8.60;4.93;;;;;;;8.71;100.00;100226.09;5055716;28;20033;-82
2023/03/26 12:59:48;;;;;;;8.65;5.65;;;;;;;8.79;100.00;100224.16;5055047;28;20036;-81
2023/03/26 13:02:36;;;;;;;9.32;6.13;;;;;;;8.90;100.00;100231.69;5056008;28;20096;-81
2023/03/26 13:05:23;;;;;;;7.35;4.90;;;;;;;8.94;100.00;100235.91;5056029;28;20060;-81
2023/03/26 13:08:05;;;;;;;7.63;4.97;;;;;;;8.89;100.00;100233.44;5043361;28;20037;-81
2023/03/26 13:10:47;;;;;;;8.20;4.95;;;;;;;8.76;100.00;100208.63;5055570;28;20028;-82
2023/03/26 13:13:24;;;;;;;8.48;4.50;;;;;;;8.91;100.00;100241.19;5054808;28;20044;-81
2023/03/26 13:15:52;;;;;;;7.35;4.30;;;;;;;8.74;100.00;100228.63;5055387;28;20029;-81
2023/03/26 13:18:57;;;;;;;6.70;3.92;;;;;;;8.80;100.00;100240.63;5055517;28;20021;-82
2023/03/26 13:21:30;;;;;;;4.68;3.45;;;;;;;8.51;100.00;100246.53;5040700;28;20021;-81
2023/03/26 13:24:18;;;;;;;6.05;3.38;;;;;;;8.29;100.00;100243.56;5055534;28;20032;-81
2023/03/26 13:30:42;;;;;;;7.65;4.03;;;;;;;8.08;100.00;100261.34;5242638;22;20526;-81
2023/03/26 13:33:54;;;;;;;13.82;5.13;;;;;;;8.20;100.00;100258.47;5095229;28;20036;-82
2023/03/26 13:40:20;;;;;;;12.93;6.25;;;;;;;8.44;100.00;100257.09;5183454;22;20454;-81
2023/03/26 13:43:13;;;;;;;10.18;6.07;;;;;;;8.52;100.00;100256.88;5086615;28;20169;-81
2023/03/26 13:46:04;;;;;;;11.55;6.57;;;;;;;8.37;100.00;100249.41;5081331;28;20036;-81
2023/03/26 13:48:40;;;;;;;8.43;5.53;;;;;;;8.11;100.00;100253.50;5094173;28;20472;-81
2023/03/26 13:51:15;;;;;;;9.40;5.40;;;;;;;8.03;100.00;100273.56;5095695;28;20099;-81
2023/03/26 13:53:47;;;;;;;5.72;3.80;;;;;;;7.76;100.00;100269.00;5094808;28;20024;-81
2023/03/26 13:56:18;;;;;;;4.82;2.95;;;;;;;7.59;100.00;100279.72;5084567;28;20024;-80
2023/03/26 13:58:50;;;;;;;5.10;2.65;;;;;;;7.37;100.00;100279.28;5091424;28;20024;-80
2023/03/26 14:01:33;;;;;;;4.55;3.30;;;;;;;7.35;100.00;100291.41;5095347;28;20093;-81
2023/03/26 14:04:16;;;;;;;6.47;3.85;;;;;;;7.31;100.00;100284.56;5095115;28;20052;-81
2023/03/26 14:06:56;;;;;;;6.38;4.90;;;;;;;7.27;100.00;100295.00;5094892;28;20040;-82
2023/03/26 14:09:30;;;;;;;9.48;5.25;;;;;;;7.28;100.00;100301.03;5080111;28;20024;-81
2023/03/26 14:11:56;;;;;;;8.35;5.80;;;;;;;7.35;100.00;100307.81;5095207;28;20028;-82